Latest Weather Observations for Pound Creek

IDV60801

Issued at 12:04 pm EST Wednesday 26 April 2017 (issued every 30 minutes, with the page automatically refreshed every 10 minutes)

About weather observations | Map of weather stations | Latest weather observations for VIC | Other Formats
Station Details ID: 085099 Name: POUND CREEK Lat: -38.63 Lon: 145.81 Height: 3.0 m
Data from the previous 72 hours. | See also: Recent months at Pound Creek
Date/Time
EST
Temp
°C
App
Temp
°C
Dew
Point
°C
Rel
Hum
%
Delta-T
°C
Wind Press
QNH
hPa
Press
MSL
hPa
Rain since
9am
mm
Dir  Spd
km/h
Gust
km/h
Spd
kts
Gust
kts
26/11:30am 13.7 5.6 5.3 57 3.9 SSW 37 54 20 29 1010.8 1010.8 0.2
26/11:17am 14.1 6.5 5.7 57 4.0 SSW 35 54 19 29 1010.6 1010.6 0.2
26/11:00am 13.1 4.8 4.3 55 4.0 SSW 37 46 20 25 1010.4 1010.4 0.2
26/10:30am 13.3 5.6 5.2 58 3.8 SSW 35 52 19 28 1009.9 1009.9 0.2
26/10:00am 13.4 5.2 6.7 64 3.2 SSW 39 54 21 29 1009.2 1009.2 0.2
26/09:30am 12.7 4.5 6.7 67 2.9 SSW 39 52 21 28 1008.8 1008.8 0.2
26/09:00am 13.2 5.9 7.4 68 2.8 SSW 35 48 19 26 1008.4 1008.4 12.4
26/08:30am 12.6 4.9 6.9 68 2.7 SSW 37 50 20 27 1007.8 1007.8 12.4
26/08:13am 11.8 5.7 6.7 71 2.4 SSW 28 48 15 26 1007.6 1007.6 12.4
26/08:00am 11.7 7.8 9.3 85 1.2 SSW 20 32 11 17 1007.6 1007.6 12.4
26/07:30am 10.9 4.4 8.1 83 1.4 SSW 32 43 17 23 1007.0 1007.0 12.0
26/07:17am 10.4 1.6 8.2 86 1.1 SW 44 65 24 35 1006.9 1006.9 12.0
26/07:05am 11.5 5.4 8.4 81 1.5 SW 30 61 16 33 1006.4 1006.4 11.0
26/07:00am 12.0 7.1 8.3 78 1.8 SSW 24 33 13 18 1006.1 1006.1 10.8
26/06:30am 11.8 5.8 8.6 81 1.6 SSW 30 43 16 23 1005.5 1005.5 10.4
26/06:00am 11.6 5.5 8.1 79 1.7 SSW 30 43 16 23 1005.1 1005.1 10.2
26/05:30am 10.9 3.3 7.6 80 1.6 SSW 37 50 20 27 1004.6 1004.6 10.0
26/05:16am 11.0 2.8 8.2 83 1.4 SSW 41 59 22 32 1004.3 1004.3 10.0
26/05:00am 11.8 4.0 9.7 87 1.1 SW 41 57 22 31 1003.7 1003.7 9.2
26/04:30am 11.9 4.0 9.5 85 1.2 SW 41 54 22 29 1003.0 1003.0 8.6
26/04:01am 12.8 9.3 10.2 84 1.3 W 19 52 10 28 1002.4 1002.4 6.8
26/04:00am 13.2 10.1 10.2 82 1.6 W 17 41 9 22 1002.4 1002.4 5.4
26/03:30am 13.6 11.7 10.4 81 1.7 NW 11 19 6 10 1001.9 1001.9 4.6
26/03:00am 13.3 11.5 11.0 86 1.2 NNW 11 17 6 9 1002.1 1002.1 4.6
26/02:30am 13.1 12.2 10.5 84 1.4 NNW 6 11 3 6 1002.3 1002.3 4.6
26/02:00am 13.8 12.5 11.1 84 1.4 NW 9 17 5 9 1002.7 1002.7 4.6
26/01:30am 13.8 12.5 11.1 84 1.4 NW 9 17 5 9 1002.9 1002.9 4.6
26/01:00am 13.4 11.6 10.9 85 1.3 NNW 11 15 6 8 1003.2 1003.2 4.6
26/12:30am 13.5 11.9 11.6 88 1.0 NW 11 20 6 11 1003.6 1003.6 4.6
26/12:00am 13.9 12.4 11.8 87 1.1 NW 11 20 6 11 1003.6 1003.6 4.6
 
Date/Time
EST
Temp
°C
App
Temp
°C
Dew
Point
°C
Rel
Hum
%
Delta-T
°C
Wind Press
QNH
hPa
Press
MSL
hPa
Rain since
9am
mm
Dir  Spd
km/h
Gust
km/h
Spd
kts
Gust
kts
25/11:30pm 14.1 11.9 12.1 88 1.1 NW 15 24 8 13 1003.6 1003.6 4.6
25/11:00pm 14.1 12.0 12.3 89 1.0 NNW 15 24 8 13 1003.6 1003.6 4.6
25/10:30pm 13.8 12.5 12.4 91 0.8 NNW 11 17 6 9 1003.6 1003.6 4.4
25/10:00pm 13.2 12.1 11.9 92 0.7 NNW 9 15 5 8 1003.9 1003.9 3.8
25/09:30pm 8.4 6.9 6.9 90 0.7 N 4 6 2 3 1004.0 1004.0 3.8
25/09:00pm 10.1 8.6 8.4 89 0.8 N 6 6 3 3 1004.5 1004.5 3.8
25/08:30pm 10.7 9.7 8.8 88 0.9 N 4 4 2 2 1004.9 1004.9 3.8
25/08:00pm 11.7 10.8 9.3 85 1.2 N 4 4 2 2 1005.0 1005.0 3.8
25/07:30pm 12.4 11.3 9.8 84 1.3 N 6 9 3 5 1005.2 1005.2 3.8
25/07:00pm 13.2 11.5 10.0 81 1.7 N 9 11 5 6 1005.5 1005.5 3.8
25/06:30pm 14.1 13.2 10.5 79 1.9 NNW 6 7 3 4 1005.6 1005.6 3.8
25/06:00pm 14.3 13.7 10.3 77 2.1 WNW 4 7 2 4 1005.7 1005.7 3.8
25/05:30pm 14.7 13.1 10.1 74 2.4 WNW 9 13 5 7 1005.8 1005.8 3.8
25/05:00pm 16.2 13.9 10.3 68 3.1 W 13 19 7 10 1005.8 1005.8 3.8
25/04:30pm 16.1 12.5 10.0 67 3.2 WSW 19 24 10 13 1005.9 1005.9 3.8
25/04:00pm 16.4 12.7 10.3 67 3.2 WSW 20 26 11 14 1005.7 1005.7 3.8
25/03:30pm 16.9 13.5 11.2 69 3.1 WSW 20 24 11 13 1005.8 1005.8 3.8
25/03:00pm 17.1 13.0 11.4 69 3.1 WSW 24 32 13 17 1005.8 1005.8 3.8
25/02:30pm 16.1 12.3 12.5 79 2.0 WSW 24 35 13 19 1005.7 1005.7 3.8
25/02:00pm 15.9 12.4 13.4 85 1.4 SW 24 33 13 18 1005.7 1005.7 3.8
25/01:30pm 16.8 13.6 13.1 79 2.1 WSW 22 30 12 16 1005.8 1005.8 3.4
25/01:00pm 16.5 13.7 14.2 86 1.3 SW 22 28 12 15 1005.9 1005.9 3.4
25/12:30pm 15.7 13.1 13.9 89 1.0 SW 20 28 11 15 1006.1 1006.1 3.4
25/12:00pm 15.9 13.5 14.3 90 0.9 WSW 20 30 11 16 1006.3 1006.3 3.0
25/11:30am 15.9 13.0 14.1 89 1.0 WSW 22 30 12 16 1006.6 1006.6 2.4
25/11:00am 16.2 13.9 14.7 91 0.9 SW 20 30 11 16 1006.6 1006.6 2.2
25/10:30am 16.2 15.2 14.7 91 0.9 WSW 13 20 7 11 1006.5 1006.5 1.4
25/10:00am 16.1 14.8 14.8 92 0.7 WSW 15 20 8 11 1006.5 1006.5 1.0
25/09:30am 15.7 15.3 14.2 91 0.9 W 9 15 5 8 1006.7 1006.7 0.4
25/09:00am 15.4 15.0 14.1 92 0.7 W 9 13 5 7 1006.5 1006.5 33.2
25/08:30am 15.4 15.4 14.1 92 0.7 WNW 7 13 4 7 1006.6 1006.6 32.4
25/08:00am 15.5 15.1 14.0 91 0.8 W 9 11 5 6 1006.3 1006.3 30.6
25/07:30am 15.5 13.1 13.9 90 0.9 W 19 28 10 15 1005.9 1005.9 28.8
25/07:00am 16.6 16.2 15.1 91 0.9 NW 11 20 6 11 1005.6 1005.6 26.6
25/06:30am 16.5 16.0 15.0 91 0.9 NNW 11 19 6 10 1005.6 1005.6 26.0
25/06:00am 16.3 16.6 15.0 92 0.8 N 7 11 4 6 1005.8 1005.8 23.8
25/05:30am 15.9 16.1 14.6 92 0.7 N 7 9 4 5 1006.0 1006.0 23.6
25/05:00am 15.7 15.9 14.2 91 0.9 NNE 6 7 3 4 1006.3 1006.3 23.2
25/04:30am 15.7 15.7 14.2 91 0.9 NNE 7 9 4 5 1006.5 1006.5 22.2
25/04:00am 15.7 15.7 14.2 91 0.9 NNE 7 13 4 7 1006.8 1006.8 21.4
25/03:30am 15.8 16.0 14.3 91 0.9 NNE 6 9 3 5 1007.1 1007.1 20.2
25/03:00am 15.9 16.9 14.3 90 0.9 NE 2 6 1 3 1007.6 1007.6 19.2
25/02:30am 15.9 15.9 14.3 90 0.9 ENE 7 9 4 5 1008.1 1008.1 12.4
25/02:00am 16.0 16.3 14.4 90 0.9 ENE 6 7 3 4 1008.9 1008.9 11.6
25/01:30am 16.1 16.4 14.5 90 0.9 E 6 6 3 3 1009.6 1009.6 8.8
25/01:00am 16.1 16.8 14.6 91 0.9 ESE 4 6 2 3 1010.0 1010.0 4.4
25/12:30am 16.1 16.7 14.3 89 1.0 ESE 4 6 2 3 1010.2 1010.2 2.8
25/12:00am 16.3 16.6 14.5 89 1.0 ESE 6 11 3 6 1010.6 1010.6 2.4
 
Date/Time
EST
Temp
°C
App
Temp
°C
Dew
Point
°C
Rel
Hum
%
Delta-T
°C
Wind Press
QNH
hPa
Press
MSL
hPa
Rain since
9am
mm
Dir  Spd
km/h
Gust
km/h
Spd
kts
Gust
kts
24/11:30pm 16.4 16.7 14.4 88 1.1 E 6 7 3 4 1011.0 1011.0 0.4
24/11:00pm 16.7 16.5 14.7 88 1.2 S 9 13 5 7 1011.6 1011.6 0.0
24/10:30pm 16.5 16.2 14.5 88 1.1 W 9 17 5 9 1012.1 1012.1 0.0
24/10:00pm 15.4 16.5 13.6 89 1.0 CALM 0 0 0 0 1012.2 1012.2 0.0
24/09:30pm 15.8 16.4 14.2 90 0.9 E 4 4 2 2 1012.5 1012.5 0.0
24/09:00pm 15.8 15.7 13.8 88 1.1 E 7 9 4 5 1013.0 1013.0 0.0
24/08:30pm 15.7 15.5 13.5 87 1.2 E 7 9 4 5 1013.4 1013.4 0.0
24/08:00pm 15.9 15.9 13.7 87 1.2 SE 6 7 3 4 1014.1 1014.1 0.0
24/07:30pm 15.8 16.1 13.5 86 1.3 SE 4 6 2 3 1014.3 1014.3 0.0
24/07:00pm 16.1 16.2 13.8 86 1.3 SE 6 9 3 5 1014.4 1014.4 0.0
24/06:30pm 16.5 16.6 14.0 85 1.4 SE 6 9 3 5 1014.3 1014.3 0.0
24/06:00pm 16.6 16.5 13.9 84 1.5 SSE 7 9 4 5 1014.3 1014.3 0.0
24/05:30pm 17.4 17.4 14.3 82 1.8 SSE 7 7 4 4 1014.3 1014.3 0.0
24/05:00pm 17.8 18.0 14.7 82 1.8 SSE 7 9 4 5 1014.5 1014.5 0.0
24/04:30pm 17.9 18.2 14.6 81 1.9 SSE 6 9 3 5 1014.8 1014.8 0.0
24/04:00pm 18.7 19.1 15.4 81 1.9 S 7 9 4 5 1015.1 1015.1 0.0
24/03:30pm 18.3 18.7 15.2 82 1.8 SSW 7 9 4 5 1015.5 1015.5 0.0
24/03:00pm 18.3 18.0 14.4 78 2.2 SSW 9 11 5 6 1015.7 1015.7 0.0
24/02:30pm 19.7 19.4 14.5 72 3.0 SSW 9 13 5 7 1015.7 1015.7 0.0
24/02:00pm 20.4 19.8 14.7 70 3.3 SSW 11 15 6 8 1016.0 1016.0 0.0
24/01:30pm 20.4 19.4 14.7 70 3.3 SW 13 17 7 9 1016.3 1016.3 0.0
24/01:00pm 21.3 21.5 14.2 64 4.1 NW 6 9 3 5 1016.8 1016.8 0.0
24/12:30pm 20.6 19.9 13.3 63 4.2 N 9 13 5 7 1017.3 1017.3 0.0
24/12:00pm 19.5 20.1 14.3 72 3.0 NE 4 9 2 5 1018.0 1018.0 0.0
24/11:30am 18.4 18.4 14.1 76 2.5 NNE 7 11 4 6 1018.7 1018.7 0.0
24/11:00am 18.1 18.2 15.4 84 1.6 NNE 9 15 5 8 1019.1 1019.1 0.0
24/10:30am 16.6 17.1 15.6 94 0.6 NNE 7 11 4 6 1019.6 1019.6 0.0
24/10:00am 15.3 16.0 14.5 95 0.5 NNE 4 9 2 5 1020.0 1020.0 0.0
24/09:30am 15.0 15.7 14.4 96 0.3 N 4 6 2 3 1020.6 1020.6 0.0
24/09:00am 14.4 14.8 13.6 95 0.4 N 4 6 2 3 1020.9 1020.9 0.2
24/08:30am 14.0 13.9 13.4 96 0.3 NNE 6 9 3 5 1020.9 1020.9 0.2
24/08:00am 13.4 13.8 12.6 95 0.4 N 2 4 1 2 1020.7 1020.7 0.2
24/07:30am 13.2 13.6 12.6 96 0.3 NNE 2 6 1 3 1020.6 1020.6 0.2
24/07:00am 12.3 12.4 11.5 95 0.4 N 2 6 1 3 1020.7 1020.7 0.2
24/06:30am 11.6 11.9 10.8 95 0.4 CALM 0 0 0 0 1020.8 1020.8 0.2
24/06:00am 12.0 12.4 11.2 95 0.4 CALM 0 0 0 0 1020.9 1020.9 0.2
24/05:30am 12.8 12.6 11.9 94 0.5 N 4 6 2 3 1020.8 1020.8 0.2
24/05:00am 12.2 11.5 11.3 94 0.5 NNE 6 6 3 3 1020.9 1020.9 0.2
24/04:30am 12.4 12.9 11.5 94 0.5 CALM 0 0 0 0 1020.8 1020.8 0.2
24/04:00am 12.3 12.7 11.2 93 0.6 CALM 0 0 0 0 1020.9 1020.9 0.2
24/03:30am 12.0 12.4 11.1 94 0.5 CALM 0 0 0 0 1021.1 1021.1 0.2
24/03:00am 12.2 12.5 10.9 92 0.7 CALM 0 0 0 0 1021.1 1021.1 0.2
24/02:30am 12.0 11.7 10.2 89 0.9 NNE 2 4 1 2 1021.2 1021.2 0.2
24/02:00am 12.9 13.3 11.3 90 0.8 CALM 0 0 0 0 1021.5 1021.5 0.2
24/01:30am 13.7 13.7 12.3 91 0.8 NNE 4 9 2 5 1021.6 1021.6 0.2
24/01:00am 13.1 13.3 11.7 91 0.7 NNE 2 4 1 2 1021.8 1021.8 0.2
24/12:30am 13.6 14.2 11.8 89 1.0 CALM 0 0 0 0 1022.2 1022.2 0.2
24/12:00am 14.6 14.7 12.8 89 1.0 NE 4 6 2 3 1022.4 1022.4 0.2
 
Date/Time
EST
Temp
°C
App
Temp
°C
Dew
Point
°C
Rel
Hum
%
Delta-T
°C
Wind Press
QNH
hPa
Press
MSL
hPa
Rain since
9am
mm
Dir  Spd
km/h
Gust
km/h
Spd
kts
Gust
kts
23/11:30pm 15.5 15.3 13.7 89 1.0 N 7 9 4 5 1022.7 1022.7 0.2
23/11:00pm 15.9 15.9 14.3 90 0.9 NNE 7 9 4 5 1022.9 1022.9 0.2
23/10:30pm 14.9 15.1 13.1 89 1.0 NNE 4 6 2 3 1023.2 1023.2 0.2
23/10:00pm 14.7 14.9 12.9 89 1.0 N 4 6 2 3 1023.4 1023.4 0.2
23/09:30pm 14.1 14.4 12.1 88 1.1 N 2 4 1 2 1023.4 1023.4 0.2
23/09:00pm 15.8 16.1 13.5 86 1.3 NNE 4 6 2 3 1023.3 1023.3 0.2
23/08:30pm 16.2 16.7 14.0 87 1.2 NNE 4 4 2 2 1023.2 1023.2 0.2
23/08:00pm 16.2 16.7 13.9 86 1.3 NNE 4 6 2 3 1023.3 1023.3 0.2
23/07:30pm 16.4 17.3 13.9 85 1.4 WSW 2 2 1 1 1023.2 1023.2 0.2
23/07:00pm 16.7 17.7 14.2 85 1.4 WSW 2 2 1 1 1023.0 1023.0 0.2
23/06:30pm 16.9 17.0 14.0 83 1.6 WSW 6 7 3 4 1022.7 1022.7 0.2
23/06:00pm 17.3 18.2 14.0 81 1.9 SW 2 2 1 1 1022.6 1022.6 0.2
23/05:30pm 17.5 18.8 14.0 80 2.0 CALM 0 4 0 2 1022.5 1022.5 0.2
23/05:00pm 17.7 18.3 14.2 80 2.0 SW 4 6 2 3 1022.3 1022.3 0.2
23/04:30pm 17.9 18.2 14.4 80 2.0 SW 6 9 3 5 1022.2 1022.2 0.2
23/04:00pm 17.9 17.2 14.4 80 2.0 SW 11 15 6 8 1022.4 1022.4 0.2
23/03:30pm 19.2 18.8 14.2 73 2.9 SW 9 11 5 6 1022.2 1022.2 0.2
23/03:00pm 19.3 19.3 14.1 72 3.0 W 7 11 4 6 1022.1 1022.1 0.2
23/02:30pm 18.9 18.5 14.0 73 2.8 W 9 13 5 7 1022.1 1022.1 0.2
23/02:00pm 18.7 18.4 14.4 76 2.5 SSW 9 13 5 7 1022.2 1022.2 0.2
23/01:30pm 19.3 19.5 14.3 73 2.9 WNW 6 9 3 5 1022.3 1022.3 0.2
23/01:00pm 18.4 18.1 14.3 77 2.4 WNW 9 15 5 8 1022.6 1022.6 0.2
23/12:30pm 18.2 18.0 14.7 80 2.0 SW 9 13 5 7 1022.9 1022.9 0.2

Other Formats:

Comma delimited format used in spreadsheet applications
http://www.bom.gov.au/fwo/IDV60801/IDV60801.94886.axf

JavaScript Object Notation format (JSON) in row-major order
http://www.bom.gov.au/fwo/IDV60801/IDV60801.94886.json